This is the latest recevied weather packets stored in our database for station/object DK2OO-6. If no packets are shown the sender has not sent any weather packets the latest 10 day(s).
| Time | Temp. | Humidity | Pressure | Rain* | Wind** | Luminosity | Snow |
|---|---|---|---|---|---|---|---|
| 1788063545 | 15.56° C | 80% | 1010.4 hPa | 0 mm | - | - | - |
| 1788062330 | 16.11° C | 79% | 1010.3 hPa | 0 mm | - | - | - |
| 1788059925 | 16.11° C | 80% | 1010.2 hPa | 0 mm | - | - | - |
| 1788058716 | 16.11° C | 80% | 1010.2 hPa | 0 mm | - | - | - |
| 1788038769 | 16.67° C | 76% | 1010 hPa | 0 mm | - | - | - |
| 1788037559 | 17.22° C | 75% | 1009.8 hPa | 0 mm | - | - | - |
| 1788034530 | 17.78° C | 72% | 1010 hPa | 0 mm | - | - | - |
| 1788033920 | 17.78° C | 71% | 1010 hPa | 0 mm | - | - | - |
| 1788024858 | 21.67° C | 58% | 1009.2 hPa | 0 mm | - | - | - |
| 1788024250 | 22.22° C | 57% | 1009.2 hPa | 0 mm | - | - | - |
| 1788023042 | 22.22° C | 57% | 1009.2 hPa | 0 mm | - | - | - |
| 1788021226 | 22.78° C | 56% | 1009.2 hPa | 0 mm | - | - | - |
| 1788020626 | 22.78° C | 56% | 1009.3 hPa | 0 mm | - | - | - |
| 1788014591 | 23.89° C | 54% | 1009.5 hPa | 0 mm | - | - | - |
| 1788008551 | 25° C | 53% | 1010.1 hPa | 0 mm | - | - | - |
| 1788006144 | 25° C | 56% | 1010.3 hPa | 0 mm | - | - | - |
| 1788004938 | 23.89° C | 58% | 1010.5 hPa | 0 mm | - | - | - |
| 1788004333 | 23.89° C | 59% | 1010.7 hPa | 0 mm | - | - | - |
| 1788003123 | 23.89° C | 59% | 1011 hPa | 0 mm | - | - | - |
| 1788002519 | 23.89° C | 59% | 1011 hPa | 0 mm | - | - | - |
| 1788001915 | 23.89° C | 61% | 1011.1 hPa | 0 mm | - | - | - |
| 1788001308 | 23.33° C | 61% | 1010.9 hPa | 0 mm | - | - | - |
| 1788000702 | 23.89° C | 63% | 1011.1 hPa | 0 mm | - | - | - |
| 1787997082 | 22.22° C | 66% | 1011.6 hPa | 0 mm | - | - | - |
| 1787995882 | 21.67° C | 68% | 1011.8 hPa | 0 mm | - | - | - |
* Rain latest hour (hover to see other rain measurements)
** Current wind speed in m/s (hover to see current wind gust speed)